createdAt,value
2023-05-12T00:01:38.260Z,60.23
2023-05-12T00:06:39.694Z,57.39
2023-05-12T00:11:41.113Z,58.01
2023-05-12T00:16:43.298Z,57.92
2023-05-12T00:21:44.806Z,57.28
2023-05-12T00:26:46.234Z,59.35
2023-05-12T00:31:47.750Z,60.52
2023-05-12T00:36:49.199Z,58.28
2023-05-12T00:41:58.143Z,59.83
2023-05-12T00:46:59.601Z,58.72
2023-05-12T00:52:02.576Z,57.91
2023-05-12T00:57:04.327Z,57.50
2023-05-12T01:02:07.294Z,59.19
2023-05-12T01:07:22.488Z,57.86
2023-05-12T01:12:26.070Z,58.07
2023-05-12T01:17:31.920Z,59.06
2023-05-12T01:22:33.972Z,58.63
2023-05-12T01:27:39.198Z,58.63
2023-05-12T01:32:42.117Z,58.01
2023-05-12T01:37:44.029Z,58.45
2023-05-12T01:42:45.516Z,58.75
2023-05-12T01:47:47.613Z,60.30
2023-05-12T01:52:49.279Z,60.44
2023-05-12T01:57:52.688Z,59.43
2023-05-12T02:02:55.247Z,59.09
2023-05-12T02:07:57.281Z,59.35
2023-05-12T02:12:58.911Z,59.32
2023-05-12T02:18:03.641Z,59.17
2023-05-12T02:23:05.625Z,59.45
2023-05-12T02:28:10.923Z,59.67
2023-05-12T02:33:13.636Z,59.64
2023-05-12T02:38:15.129Z,59.81
2023-05-12T02:43:16.814Z,60.19
2023-05-12T02:48:18.357Z,60.06
2023-05-12T02:53:19.986Z,59.97
2023-05-12T02:58:22.287Z,60.28
2023-05-12T03:03:23.798Z,59.74
2023-05-12T03:08:25.451Z,60.13
2023-05-12T03:13:26.984Z,60.08
2023-05-12T03:18:29.085Z,60.12
2023-05-12T03:23:31.405Z,60.07
2023-05-12T03:28:33.178Z,60.05
2023-05-12T03:33:34.694Z,60.04
2023-05-12T03:38:36.928Z,60.73
2023-05-12T03:43:38.647Z,60.45
2023-05-12T03:48:40.101Z,60.75
2023-05-12T03:53:45.241Z,60.00
2023-05-12T03:58:47.934Z,60.08
2023-05-12T04:03:51.015Z,60.40
2023-05-12T04:08:52.612Z,60.51
2023-05-12T04:13:54.139Z,61.11
2023-05-12T04:18:57.329Z,60.47
2023-05-12T04:23:59.262Z,61.01
2023-05-12T04:29:04.756Z,60.99
2023-05-12T04:34:06.576Z,61.70
2023-05-12T04:39:09.652Z,62.00
2023-05-12T04:44:11.633Z,61.63
2023-05-12T04:49:14.269Z,63.96
2023-05-12T04:54:15.714Z,62.50
2023-05-12T04:59:17.726Z,63.38
2023-05-12T05:04:21.328Z,62.89
2023-05-12T05:09:22.854Z,61.57
2023-05-12T05:14:24.608Z,61.42
2023-05-12T05:19:40.483Z,60.80
2023-05-12T05:24:48.745Z,60.36
2023-05-12T05:29:50.676Z,59.29
2023-05-12T05:34:52.386Z,61.48
2023-05-12T05:39:54.029Z,61.58
2023-05-12T05:44:56.274Z,60.10
2023-05-12T05:49:58.725Z,61.22
2023-05-12T05:55:00.473Z,60.75
2023-05-12T06:00:04.968Z,59.50
2023-05-12T06:05:14.895Z,58.08
2023-05-12T06:10:16.456Z,57.20
2023-05-12T06:15:18.797Z,56.67
2023-05-12T06:20:20.662Z,57.32
2023-05-12T06:25:22.384Z,57.95
2023-05-12T06:30:24.101Z,55.60
2023-05-12T06:35:29.241Z,55.96
2023-05-12T06:40:30.692Z,56.46
2023-05-12T06:45:32.114Z,56.65
2023-05-12T06:50:34.382Z,54.29
2023-05-12T06:55:35.832Z,55.20
2023-05-12T07:00:37.329Z,55.86
2023-05-12T07:05:38.798Z,53.53
2023-05-12T07:10:40.313Z,55.29
2023-05-12T07:15:41.982Z,54.26
2023-05-12T07:20:43.991Z,53.29
2023-05-12T07:25:45.478Z,51.23
2023-05-12T07:30:47.188Z,51.51
2023-05-12T07:35:48.629Z,50.26
2023-05-12T07:40:51.234Z,48.78
2023-05-12T07:45:52.894Z,53.37
2023-05-12T07:50:54.588Z,51.76
2023-05-12T07:55:56.166Z,47.81
2023-05-12T08:01:00.121Z,49.64
2023-05-12T08:06:04.641Z,53.21
2023-05-12T08:11:06.106Z,46.92
2023-05-12T08:16:07.525Z,47.79
2023-05-12T08:21:08.987Z,46.16
2023-05-12T08:26:10.518Z,47.15
2023-05-12T08:31:12.491Z,46.65
2023-05-12T08:36:14.452Z,51.30
2023-05-12T08:41:19.997Z,47.31
2023-05-12T08:46:22.520Z,44.09
2023-05-12T08:51:24.425Z,42.21
2023-05-12T09:01:31.655Z,51.79
2023-05-12T09:06:33.297Z,50.10
2023-05-12T09:11:34.747Z,46.50
2023-05-12T09:16:45.423Z,48.26
2023-05-12T09:21:47.741Z,41.69
2023-05-12T09:26:51.498Z,41.88
2023-05-12T09:31:54.268Z,43.17
2023-05-12T09:36:57.548Z,45.78
2023-05-12T09:41:59.246Z,52.01
2023-05-12T09:47:07.932Z,42.13
2023-05-12T09:52:09.412Z,48.38
2023-05-12T09:57:12.671Z,45.03
2023-05-12T10:02:16.479Z,45.65
2023-05-12T10:07:23.084Z,40.71
2023-05-12T10:12:24.544Z,45.58
2023-05-12T10:17:26.836Z,46.74
2023-05-12T10:22:29.522Z,47.56
2023-05-12T10:27:33.250Z,44.10
2023-05-12T10:32:34.937Z,42.38
2023-05-12T10:37:37.640Z,45.00
2023-05-12T10:42:41.373Z,50.32
2023-05-12T10:47:43.168Z,45.19
2023-05-12T10:52:56.501Z,41.97
2023-05-12T10:58:05.677Z,44.53
2023-05-12T11:03:13.374Z,42.65
2023-05-12T11:08:16.606Z,38.99
2023-05-12T11:13:19.499Z,44.62
2023-05-12T11:18:21.910Z,49.10
2023-05-12T11:23:28.866Z,49.60
2023-05-12T11:28:39.898Z,44.52
2023-05-12T11:33:41.496Z,47.13
2023-05-12T11:38:50.311Z,49.99
2023-05-12T11:43:52.855Z,49.58
2023-05-12T11:48:59.639Z,38.03
2023-05-12T11:54:01.128Z,46.27
2023-05-12T11:59:02.705Z,38.86
2023-05-12T12:04:04.413Z,45.89
2023-05-12T12:09:05.945Z,42.38
2023-05-12T12:14:07.563Z,49.02
2023-05-12T12:19:09.141Z,43.35
2023-05-12T12:24:10.798Z,41.76
2023-05-12T12:29:12.427Z,45.74
2023-05-12T12:34:13.882Z,46.47
2023-05-12T12:39:16.039Z,44.65
2023-05-12T12:44:19.535Z,44.00
2023-05-12T12:49:20.949Z,44.57
2023-05-12T12:54:22.647Z,44.36
2023-05-12T12:59:24.143Z,45.49
2023-05-12T13:04:25.587Z,41.90
2023-05-12T13:09:27.070Z,46.71
2023-05-12T13:14:28.511Z,44.06
2023-05-12T13:19:29.945Z,44.78
2023-05-12T13:24:31.484Z,40.37
2023-05-12T13:29:32.932Z,37.51
2023-05-12T13:34:34.501Z,41.12
2023-05-12T13:39:35.970Z,38.22
2023-05-12T13:44:37.771Z,41.71
2023-05-12T13:49:39.225Z,39.18
2023-05-12T13:54:40.855Z,44.59
2023-05-12T13:59:42.286Z,38.80
2023-05-12T14:04:43.732Z,41.16
2023-05-12T14:09:45.555Z,36.87
2023-05-12T14:14:49.916Z,38.40
2023-05-12T14:19:51.400Z,40.67
2023-05-12T14:24:53.753Z,42.82
2023-05-12T14:29:55.237Z,40.48
2023-05-12T14:34:57.111Z,37.84
2023-05-12T14:39:58.546Z,38.25
2023-05-12T14:45:00.040Z,39.23
2023-05-12T14:50:01.480Z,42.88
2023-05-12T14:55:03.674Z,39.15
2023-05-12T15:00:07.919Z,34.84
2023-05-12T15:05:11.149Z,37.57
2023-05-12T15:10:12.873Z,45.52
2023-05-12T15:15:14.405Z,48.65
2023-05-12T15:20:15.924Z,45.89
2023-05-12T15:25:17.365Z,36.14
2023-05-12T15:30:18.864Z,47.54
2023-05-12T15:35:20.566Z,49.63
2023-05-12T15:40:22.647Z,41.84
2023-05-12T15:45:24.096Z,47.81
2023-05-12T15:50:25.701Z,47.95
2023-05-12T15:55:27.162Z,38.37
2023-05-12T16:00:28.702Z,35.99
2023-05-12T16:05:30.709Z,36.91
2023-05-12T16:10:32.199Z,45.22
2023-05-12T16:15:33.650Z,36.93
2023-05-12T16:20:35.168Z,46.13
2023-05-12T16:25:37.325Z,46.95
2023-05-12T16:30:38.747Z,44.76
2023-05-12T16:35:40.194Z,37.96
2023-05-12T16:40:41.635Z,50.07
2023-05-12T16:45:43.514Z,46.09
2023-05-12T16:50:45.026Z,47.71
2023-05-12T16:55:46.451Z,40.34
2023-05-12T17:00:47.877Z,42.82
2023-05-12T17:05:49.992Z,44.71
2023-05-12T17:10:51.644Z,50.81
2023-05-12T17:15:53.247Z,52.40
2023-05-12T17:20:54.771Z,46.15
2023-05-12T17:25:56.432Z,52.38
2023-05-12T17:30:58.551Z,47.99
2023-05-12T17:36:11.353Z,52.46
2023-05-12T17:41:13.600Z,48.94
2023-05-12T17:46:15.153Z,49.68
2023-05-12T17:51:16.880Z,50.59
2023-05-12T17:56:18.365Z,51.29
2023-05-12T18:01:19.877Z,51.93
2023-05-12T18:06:21.325Z,47.11
2023-05-12T18:11:22.822Z,48.67
2023-05-12T18:16:28.945Z,51.02
2023-05-12T18:21:31.164Z,52.50
2023-05-12T18:26:32.666Z,45.95
2023-05-12T18:31:36.017Z,50.10
2023-05-12T18:36:37.490Z,52.23
2023-05-12T18:41:38.912Z,52.17
2023-05-12T18:46:40.388Z,51.41
2023-05-12T18:51:41.855Z,51.17
2023-05-12T18:56:43.361Z,50.91
2023-05-12T19:01:44.896Z,51.05
2023-05-12T19:06:46.725Z,50.79
2023-05-12T19:11:48.154Z,48.18
2023-05-12T19:16:49.643Z,52.97
2023-05-12T19:21:52.083Z,51.62
2023-05-12T19:26:53.532Z,51.37
2023-05-12T19:31:55.187Z,51.65
2023-05-12T19:37:00.628Z,51.51
2023-05-12T19:42:02.116Z,51.89
2023-05-12T19:47:06.529Z,51.81
2023-05-12T19:52:08.140Z,52.13
2023-05-12T19:57:09.550Z,52.00
2023-05-12T20:02:14.819Z,52.13
2023-05-12T20:07:16.303Z,52.11
2023-05-12T20:12:17.765Z,52.38
2023-05-12T20:17:19.209Z,52.65
2023-05-12T20:22:21.915Z,53.03
2023-05-12T20:27:23.365Z,53.32
2023-05-12T20:32:24.995Z,52.99
2023-05-12T20:37:26.983Z,53.25
2023-05-12T20:42:28.548Z,53.45
2023-05-12T20:47:30.656Z,54.48
2023-05-12T20:52:33.713Z,54.25
2023-05-12T20:57:35.284Z,54.26
2023-05-12T21:02:36.920Z,53.77
2023-05-12T21:07:38.376Z,52.89
2023-05-12T21:12:39.852Z,54.95
2023-05-12T21:17:41.661Z,55.00
2023-05-12T21:22:43.133Z,54.97
2023-05-12T21:27:45.754Z,55.23
2023-05-12T21:32:47.257Z,55.25
2023-05-12T21:37:51.648Z,55.12
2023-05-12T21:42:53.161Z,55.35
2023-05-12T21:47:54.643Z,56.65
2023-05-12T21:52:56.126Z,55.05
2023-05-12T21:57:58.592Z,57.36
2023-05-12T22:03:00.176Z,56.70
2023-05-12T22:08:01.924Z,56.75
2023-05-12T22:13:03.356Z,56.68
2023-05-12T22:18:05.049Z,56.60
2023-05-12T22:23:06.555Z,56.60
2023-05-12T22:28:08.017Z,56.90
2023-05-12T22:33:09.527Z,55.12
2023-05-12T22:38:11.029Z,56.26
2023-05-12T22:43:15.242Z,56.22
2023-05-12T22:48:16.686Z,57.37
2023-05-12T22:53:18.155Z,57.40
2023-05-12T22:58:19.584Z,57.22
2023-05-12T23:03:21.014Z,57.25
2023-05-12T23:08:22.448Z,57.51
2023-05-12T23:13:23.888Z,57.99
2023-05-12T23:18:25.400Z,57.85
2023-05-12T23:23:26.864Z,56.91
2023-05-12T23:28:28.336Z,57.31
2023-05-12T23:33:29.946Z,56.72
2023-05-12T23:38:31.505Z,58.03
2023-05-12T23:43:32.944Z,57.90
2023-05-12T23:48:34.383Z,58.70
2023-05-12T23:53:35.861Z,60.11
2023-05-12T23:58:37.311Z,61.12
